Time;durP1;ratioP1;P1;durP2;ratioP2;P2;SDS_P1;SDS_P2;PMS_P1;PMS_P2;Temp;Humidity;BMP_temperature;BMP_pressure;BME280_temperature;BME280_humidity;BME280_pressure;Samples;Min_cycle;Max_cycle;Signal;HPM_P1;HPM_P2
2023/02/11 00:00:54;;;;;;;1.60;1.20;;;6.20;98.20;;;;;;5091608;28;20463;-73
2023/02/11 00:03:20;;;;;;;1.60;1.30;;;6.10;98.20;;;;;;5106697;28;20471;-73
2023/02/11 00:05:58;;;;;;;1.53;1.30;;;6.10;98.20;;;;;;5102920;28;20460;-73
2023/02/11 00:08:26;;;;;;;1.60;1.30;;;6.10;98.20;;;;;;5088218;28;20474;-74
2023/02/11 00:10:53;;;;;;;1.50;1.30;;;6.00;98.20;;;;;;5095810;28;20491;-74
2023/02/11 00:13:20;;;;;;;1.60;1.30;;;6.00;98.20;;;;;;5084887;28;20877;-74
2023/02/11 00:15:47;;;;;;;1.60;1.30;;;6.00;98.20;;;;;;5102253;28;20534;-73
2023/02/11 00:18:14;;;;;;;1.57;1.20;;;6.00;98.20;;;;;;5074285;28;20479;-74
2023/02/11 00:20:42;;;;;;;1.60;1.30;;;6.00;98.20;;;;;;5104456;28;20465;-74
2023/02/11 00:23:09;;;;;;;1.53;1.27;;;6.00;98.20;;;;;;5078496;28;20472;-73
2023/02/11 00:25:41;;;;;;;1.53;1.30;;;6.00;98.20;;;;;;5102294;28;20462;-74
2023/02/11 00:28:08;;;;;;;1.60;1.30;;;6.00;98.20;;;;;;5071201;28;21184;-74
2023/02/11 00:30:35;;;;;;;1.60;1.50;;;6.00;98.20;;;;;;5097567;28;20484;-74
2023/02/11 00:33:02;;;;;;;1.60;1.40;;;6.00;98.20;;;;;;5089266;28;20503;-74
2023/02/11 00:35:29;;;;;;;1.53;1.20;;;6.00;98.20;;;;;;5101503;28;20536;-74
2023/02/11 00:37:57;;;;;;;1.57;1.30;;;6.00;98.20;;;;;;5084595;28;20880;-74
2023/02/11 00:40:24;;;;;;;1.60;1.30;;;6.00;98.20;;;;;;5101187;28;20547;-74
2023/02/11 00:42:52;;;;;;;1.70;1.60;;;6.00;98.20;;;;;;5088041;28;20851;-74
2023/02/11 00:45:20;;;;;;;1.60;1.50;;;6.00;98.20;;;;;;5105063;28;20459;-74
2023/02/11 00:47:47;;;;;;;1.60;1.20;;;6.00;98.20;;;;;;5073730;28;20488;-74
2023/02/11 00:50:14;;;;;;;1.60;1.30;;;6.10;98.20;;;;;;5107661;28;20537;-74
2023/02/11 00:52:41;;;;;;;1.57;1.40;;;6.10;98.20;;;;;;5084954;28;20567;-73
2023/02/11 00:55:08;;;;;;;1.60;1.30;;;6.10;98.20;;;;;;5111094;28;20546;-74
2023/02/11 00:57:35;;;;;;;1.73;1.63;;;6.00;98.20;;;;;;5092312;28;20570;-73
2023/02/11 01:00:05;;;;;;;1.50;1.20;;;6.00;98.20;;;;;;5106745;28;20497;-73
2023/02/11 01:02:32;;;;;;;1.57;1.27;;;6.00;98.20;;;;;;5087184;28;20485;-73
2023/02/11 01:04:59;;;;;;;1.60;1.40;;;6.00;98.20;;;;;;5104261;28;20462;-73
2023/02/11 01:07:26;;;;;;;1.60;1.30;;;6.00;98.20;;;;;;5079994;28;20476;-73
2023/02/11 01:09:54;;;;;;;1.50;1.30;;;6.00;98.20;;;;;;5101880;28;20467;-73
2023/02/11 01:12:21;;;;;;;1.57;1.30;;;6.00;98.20;;;;;;5086212;28;20476;-73
2023/02/11 01:14:48;;;;;;;1.57;1.37;;;6.00;98.20;;;;;;5104694;28;20466;-73
2023/02/11 01:17:16;;;;;;;1.60;1.30;;;6.00;98.20;;;;;;5096129;28;20471;-73
2023/02/11 01:19:43;;;;;;;1.50;1.30;;;5.90;98.20;;;;;;5106951;28;20544;-73
2023/02/11 01:22:10;;;;;;;1.60;1.30;;;5.90;98.20;;;;;;5076516;28;21000;-73
2023/02/11 01:24:37;;;;;;;1.60;1.30;;;5.90;98.20;;;;;;5097247;28;20476;-73
2023/02/11 01:27:04;;;;;;;1.57;1.30;;;5.90;98.20;;;;;;5094035;28;20486;-73
2023/02/11 01:29:31;;;;;;;1.60;1.37;;;5.90;98.20;;;;;;5107518;28;20468;-73
2023/02/11 01:31:58;;;;;;;1.60;1.40;;;5.90;98.20;;;;;;5089999;28;20487;-73
2023/02/11 01:34:27;;;;;;;1.60;1.30;;;5.90;98.20;;;;;;5105817;28;21089;-73
2023/02/11 01:36:57;;;;;;;1.57;1.30;;;5.80;98.20;;;;;;5076186;28;20484;-73
2023/02/11 01:39:24;;;;;;;1.57;1.30;;;5.80;98.20;;;;;;5099881;28;20459;-73
2023/02/11 01:41:52;;;;;;;1.57;1.20;;;5.80;98.20;;;;;;5089714;28;20488;-73
2023/02/11 01:44:25;;;;;;;1.60;1.33;;;5.80;98.20;;;;;;5094210;28;20541;-73
2023/02/11 01:46:51;;;;;;;1.60;1.40;;;5.80;98.20;;;;;;5081547;28;21135;-73
2023/02/11 01:49:22;;;;;;;1.60;1.40;;;5.80;98.20;;;;;;5101331;28;20558;-73
2023/02/11 01:51:55;;;;;;;1.60;1.30;;;5.80;98.20;;;;;;5096462;28;20475;-73
2023/02/11 01:57:27;;;;;;;1.60;1.40;;;5.80;98.20;;;;;;5069489;28;20562;-73
2023/02/11 02:00:12;;;;;;;1.60;1.40;;;5.70;98.20;;;;;;5096844;28;21012;-73
2023/02/11 02:02:46;;;;;;;2.37;2.17;;;5.70;98.20;;;;;;5086003;28;21044;-74
2023/02/11 02:05:22;;;;;;;1.60;1.40;;;5.70;98.20;;;;;;5094961;28;20464;-75
2023/02/11 02:07:58;;;;;;;1.60;1.33;;;5.70;98.20;;;;;;5073950;28;20472;-74
2023/02/11 02:10:27;;;;;;;1.60;1.20;;;5.70;98.20;;;;;;5102838;28;20506;-76
2023/02/11 02:12:55;;;;;;;1.57;1.30;;;5.70;98.20;;;;;;5093713;28;20487;-73
2023/02/11 02:15:25;;;;;;;1.60;1.40;;;5.70;98.20;;;;;;5099257;28;20834;-73
2023/02/11 02:18:09;;;;;;;1.70;1.60;;;5.70;98.20;;;;;;5088833;28;20479;-73
2023/02/11 02:20:58;;;;;;;1.60;1.40;;;5.70;98.20;;;;;;5097556;28;20508;-74
2023/02/11 02:23:51;;;;;;;1.60;1.50;;;5.70;98.20;;;;;;5079179;28;20467;-73
2023/02/11 02:26:37;;;;;;;1.60;1.30;;;5.70;98.20;;;;;;5080081;28;20996;-73
2023/02/11 02:29:43;;;;;;;1.53;1.30;;;5.70;98.20;;;;;;5105914;28;20483;-73
2023/02/11 02:32:46;;;;;;;2.97;2.70;;;5.70;98.20;;;;;;5074874;28;21043;-73
2023/02/11 02:35:25;;;;;;;1.60;1.30;;;5.80;98.20;;;;;;5082429;28;20830;-73
2023/02/11 02:37:59;;;;;;;1.60;1.30;;;5.80;98.20;;;;;;5089300;28;20530;-73
2023/02/11 02:40:30;;;;;;;1.83;1.53;;;5.80;98.20;;;;;;5107745;28;20470;-73
2023/02/11 02:43:00;;;;;;;1.57;1.20;;;5.90;98.20;;;;;;5089265;28;20476;-73
2023/02/11 02:45:27;;;;;;;1.60;1.20;;;5.90;98.20;;;;;;5102278;28;20457;-73
2023/02/11 02:47:54;;;;;;;1.57;1.20;;;5.90;98.20;;;;;;5091475;28;20902;-73
2023/02/11 02:50:29;;;;;;;1.60;1.30;;;5.90;98.20;;;;;;5091749;28;20464;-73
2023/02/11 02:53:06;;;;;;;1.57;1.27;;;6.00;98.20;;;;;;5071046;28;20494;-73
2023/02/11 02:55:44;;;;;;;1.50;1.20;;;6.00;98.20;;;;;;5098725;28;20459;-73
2023/02/11 02:58:37;;;;;;;1.53;1.20;;;6.00;98.20;;;;;;5094487;28;20479;-74
2023/02/11 03:01:12;;;;;;;1.53;1.20;;;6.00;98.20;;;;;;5093656;28;20564;-72
2023/02/11 03:03:48;;;;;;;1.57;1.30;;;6.00;98.20;;;;;;5103258;28;20475;-73
2023/02/11 03:06:23;;;;;;;1.60;1.20;;;6.00;98.20;;;;;;5088913;28;20668;-73
2023/02/11 03:08:56;;;;;;;1.60;1.37;;;6.10;98.20;;;;;;5099901;28;20463;-73
2023/02/11 03:11:25;;;;;;;1.60;1.30;;;6.10;98.20;;;;;;5087041;28;20481;-73
2023/02/11 03:13:53;;;;;;;1.60;1.40;;;6.10;98.20;;;;;;5091497;28;20994;-74
2023/02/11 03:16:23;;;;;;;1.60;1.30;;;6.10;98.20;;;;;;5080493;28;21006;-73
2023/02/11 03:18:56;;;;;;;1.77;1.67;;;6.10;98.20;;;;;;5091301;28;20572;-73
2023/02/11 03:21:25;;;;;;;1.60;1.30;;;6.10;98.20;;;;;;5080315;28;20912;-74
2023/02/11 03:23:55;;;;;;;1.60;1.40;;;6.20;98.20;;;;;;5099903;28;20472;-73
2023/02/11 03:26:25;;;;;;;1.60;1.30;;;6.20;98.20;;;;;;5079435;28;20473;-73
2023/02/11 03:28:58;;;;;;;1.60;1.20;;;6.20;98.20;;;;;;5091409;28;20464;-73
2023/02/11 03:31:33;;;;;;;1.60;1.37;;;6.20;98.20;;;;;;5082214;28;20476;-73
2023/02/11 03:34:07;;;;;;;1.60;1.30;;;6.20;98.20;;;;;;5091066;28;20485;-73
2023/02/11 03:36:44;;;;;;;1.60;1.43;;;6.20;98.20;;;;;;5073672;28;20949;-71
2023/02/11 03:39:14;;;;;;;1.67;1.53;;;6.20;98.20;;;;;;5087961;28;20813;-72
2023/02/11 03:41:43;;;;;;;1.60;1.20;;;6.30;98.20;;;;;;5087565;28;20487;-72
2023/02/11 03:44:14;;;;;;;1.60;1.30;;;6.30;98.20;;;;;;5096745;28;20476;-72
2023/02/11 03:46:46;;;;;;;2.60;2.40;;;6.30;98.20;;;;;;5079758;28;20476;-72
2023/02/11 03:49:16;;;;;;;2.80;2.60;;;6.30;98.20;;;;;;5102770;28;20498;-72
2023/02/11 03:51:46;;;;;;;1.60;1.20;;;6.30;98.20;;;;;;5080850;28;20472;-72
2023/02/11 03:54:18;;;;;;;1.60;1.30;;;6.30;98.20;;;;;;5086940;28;20491;-72
2023/02/11 03:56:52;;;;;;;1.60;1.30;;;6.30;98.20;;;;;;5056093;28;20481;-72
2023/02/11 03:59:19;;;;;;;1.60;1.47;;;6.30;98.20;;;;;;5094377;28;20460;-72
2023/02/11 04:01:46;;;;;;;2.43;2.23;;;6.30;98.20;;;;;;5071852;28;20479;-72
2023/02/11 04:04:14;;;;;;;1.57;1.30;;;6.30;98.20;;;;;;5092532;28;20516;-72
2023/02/11 04:06:42;;;;;;;1.60;1.30;;;6.30;98.20;;;;;;5083214;28;20476;-72
2023/02/11 04:09:10;;;;;;;1.60;1.30;;;6.30;98.20;;;;;;5094559;28;20486;-73
2023/02/11 04:11:37;;;;;;;1.57;1.20;;;6.30;98.20;;;;;;5079847;28;20476;-72
2023/02/11 04:14:04;;;;;;;1.60;1.30;;;6.30;98.20;;;;;;5092064;28;20570;-72
2023/02/11 04:16:31;;;;;;;1.60;1.30;;;6.30;98.20;;;;;;5083619;28;20530;-73
2023/02/11 04:18:58;;;;;;;1.60;1.40;;;6.30;98.20;;;;;;5101479;28;20460;-72
2023/02/11 04:21:25;;;;;;;3.70;1.97;;;6.30;98.20;;;;;;5084626;28;21008;-72
2023/02/11 04:23:52;;;;;;;1.57;1.30;;;6.30;98.20;;;;;;5100370;28;20536;-72
2023/02/11 04:26:20;;;;;;;1.60;1.30;;;6.30;98.20;;;;;;5089978;28;20479;-72
2023/02/11 04:28:47;;;;;;;1.57;1.30;;;6.30;98.20;;;;;;5097172;28;20460;-72
2023/02/11 04:31:14;;;;;;;1.60;1.20;;;6.30;98.20;;;;;;5091292;28;20538;-72
2023/02/11 04:33:41;;;;;;;1.60;1.30;;;6.30;98.20;;;;;;5088351;28;20487;-72
2023/02/11 04:36:08;;;;;;;1.60;1.30;;;6.40;98.20;;;;;;5083832;28;20477;-72
2023/02/11 04:38:35;;;;;;;1.60;1.23;;;6.30;98.20;;;;;;5086186;28;20876;-72
2023/02/11 04:41:02;;;;;;;1.60;1.30;;;6.40;98.20;;;;;;5089738;28;20467;-72
2023/02/11 04:43:30;;;;;;;1.60;1.33;;;6.40;98.20;;;;;;5082515;28;20491;-71
2023/02/11 04:45:58;;;;;;;1.60;1.20;;;6.30;98.20;;;;;;5083394;28;20559;-72
2023/02/11 04:48:25;;;;;;;1.60;1.20;;;6.40;98.20;;;;;;5083597;28;20752;-71
2023/02/11 04:50:52;;;;;;;1.60;1.40;;;6.40;98.20;;;;;;5085263;28;20840;-72
2023/02/11 04:53:19;;;;;;;1.60;1.20;;;6.30;98.20;;;;;;5096397;28;20479;-72
2023/02/11 04:55:49;;;;;;;1.57;1.20;;;6.40;98.20;;;;;;5103597;28;20502;-71
2023/02/11 04:58:16;;;;;;;1.60;1.50;;;6.40;98.20;;;;;;5076024;28;20474;-72
2023/02/11 05:00:44;;;;;;;1.53;1.20;;;6.40;98.20;;;;;;5102170;28;20940;-72
2023/02/11 05:03:11;;;;;;;1.60;1.30;;;6.40;98.20;;;;;;5082771;28;20486;-72
2023/02/11 05:05:40;;;;;;;1.57;1.20;;;6.30;98.20;;;;;;5103359;28;20452;-72
2023/02/11 05:08:07;;;;;;;1.60;1.30;;;6.40;98.20;;;;;;5068896;28;20825;-72
2023/02/11 05:10:34;;;;;;;1.50;1.20;;;6.40;98.20;;;;;;5103151;28;20455;-72
2023/02/11 05:13:01;;;;;;;1.60;1.20;;;6.40;98.20;;;;;;5062619;28;20517;-72
2023/02/11 05:15:28;;;;;;;1.57;1.20;;;6.40;98.20;;;;;;5100270;28;20481;-72
2023/02/11 05:17:57;;;;;;;1.60;1.40;;;6.40;98.20;;;;;;5081051;28;21103;-72
2023/02/11 05:20:24;;;;;;;1.60;1.20;;;6.40;98.20;;;;;;5102784;28;20479;-72
2023/02/11 05:22:52;;;;;;;2.53;2.33;;;6.40;98.20;;;;;;5077647;28;20487;-73
2023/02/11 05:25:20;;;;;;;1.50;1.20;;;6.40;98.20;;;;;;5099626;28;20447;-72
2023/02/11 05:27:47;;;;;;;1.60;1.30;;;6.40;98.20;;;;;;5078620;28;20468;-71
2023/02/11 05:30:14;;;;;;;1.53;1.20;;;6.40;98.20;;;;;;5105390;28;20807;-71
2023/02/11 05:32:42;;;;;;;1.60;1.30;;;6.40;98.20;;;;;;5088327;28;20907;-73
2023/02/11 05:35:10;;;;;;;1.60;1.20;;;6.40;98.20;;;;;;5104390;28;20475;-73
2023/02/11 05:37:37;;;;;;;1.60;1.20;;;6.40;98.20;;;;;;5089421;28;20853;-73
2023/02/11 05:40:05;;;;;;;8.60;3.73;;;6.40;98.20;;;;;;5107401;28;20467;-73
2023/02/11 05:42:31;;;;;;;1.57;1.30;;;6.40;98.20;;;;;;5092926;28;20912;-73
2023/02/11 05:44:58;;;;;;;1.60;1.30;;;6.40;98.20;;;;;;5106202;28;20455;-73
2023/02/11 05:47:25;;;;;;;1.70;1.60;;;6.40;98.20;;;;;;5094845;27;20612;-73
2023/02/11 05:49:53;;;;;;;1.57;1.30;;;6.40;98.20;;;;;;5106226;28;20455;-73
2023/02/11 05:52:23;;;;;;;1.50;1.30;;;6.40;98.20;;;;;;5075215;28;20515;-73
2023/02/11 05:54:51;;;;;;;1.50;1.20;;;6.40;98.20;;;;;;5102640;28;20487;-73
2023/02/11 05:57:18;;;;;;;2.90;2.70;;;6.50;98.20;;;;;;5087625;28;20571;-72
2023/02/11 05:59:45;;;;;;;1.53;1.30;;;6.40;98.20;;;;;;5107551;28;20940;-72
2023/02/11 06:02:12;;;;;;;1.60;1.40;;;6.50;98.20;;;;;;5091138;28;20479;-75
2023/02/11 06:04:40;;;;;;;1.53;1.20;;;6.40;98.20;;;;;;5107397;28;20486;-73
2023/02/11 06:07:07;;;;;;;1.57;1.20;;;6.50;98.20;;;;;;5092002;28;20490;-73
2023/02/11 06:09:36;;;;;;;1.57;1.20;;;6.50;98.20;;;;;;5108247;28;20464;-73
2023/02/11 06:12:03;;;;;;;1.50;1.20;;;6.40;98.20;;;;;;5090954;28;20494;-74
2023/02/11 06:14:32;;;;;;;1.60;1.33;;;6.40;98.20;;;;;;5102386;28;20483;-75
2023/02/11 06:16:59;;;;;;;1.60;1.30;;;6.40;98.20;;;;;;5087112;28;20521;-73
2023/02/11 06:19:26;;;;;;;1.57;1.30;;;6.40;98.20;;;;;;5099310;28;20893;-73
2023/02/11 06:21:53;;;;;;;1.60;1.40;;;6.40;98.20;;;;;;5085129;28;20488;-73
2023/02/11 06:24:20;;;;;;;1.67;1.57;;;6.40;98.20;;;;;;5094743;28;20476;-73
2023/02/11 06:26:49;;;;;;;1.63;1.47;;;6.40;98.20;;;;;;5092182;28;20494;-73
2023/02/11 06:29:19;;;;;;;1.57;1.23;;;6.40;98.20;;;;;;5097282;28;20466;-74
2023/02/11 06:31:46;;;;;;;1.60;1.30;;;6.40;98.20;;;;;;5092763;28;20499;-73
2023/02/11 06:34:13;;;;;;;1.60;1.37;;;6.40;98.20;;;;;;5103845;28;20924;-74
2023/02/11 06:36:41;;;;;;;1.50;1.20;;;6.40;98.20;;;;;;5082646;28;20989;-73
2023/02/11 06:39:08;;;;;;;1.50;1.20;;;6.40;98.20;;;;;;5092615;28;20460;-73
2023/02/11 06:41:36;;;;;;;1.60;1.33;;;6.40;98.20;;;;;;5082132;28;20504;-73
2023/02/11 06:44:05;;;;;;;1.57;1.30;;;6.40;98.20;;;;;;5090107;28;22789;-73
2023/02/11 06:46:32;;;;;;;1.53;1.30;;;6.40;98.20;;;;;;5089945;28;21052;-73
2023/02/11 06:48:59;;;;;;;1.57;1.20;;;6.40;98.20;;;;;;5099217;28;20463;-73
2023/02/11 06:51:27;;;;;;;1.57;1.30;;;6.40;98.20;;;;;;5090598;28;20511;-73
2023/02/11 06:53:54;;;;;;;1.60;1.30;;;6.40;98.20;;;;;;5097264;28;20545;-73
2023/02/11 06:56:23;;;;;;;1.60;1.30;;;6.40;98.20;;;;;;5093110;28;20475;-72
2023/02/11 06:58:54;;;;;;;1.60;1.40;;;6.40;98.20;;;;;;5100690;28;20459;-73
2023/02/11 07:01:23;;;;;;;1.60;1.40;;;6.40;98.20;;;;;;5094728;28;20482;-72
2023/02/11 07:03:51;;;;;;;1.53;1.20;;;6.40;98.20;;;;;;5105468;28;20486;-73
2023/02/11 07:06:21;;;;;;;1.60;1.20;;;6.40;98.20;;;;;;5087366;28;20472;-72
2023/02/11 07:08:48;;;;;;;1.60;1.43;;;6.40;98.20;;;;;;5084132;28;20858;-72
2023/02/11 07:11:19;;;;;;;1.70;1.60;;;6.40;98.20;;;;;;5092126;28;20872;-72
2023/02/11 07:13:47;;;;;;;1.60;1.30;;;6.40;98.20;;;;;;5100283;28;20475;-72
2023/02/11 07:16:16;;;;;;;1.60;1.30;;;6.40;98.20;;;;;;5092801;28;20526;-70
2023/02/11 07:18:46;;;;;;;1.60;1.40;;;6.40;98.20;;;;;;5103126;28;20546;-73
2023/02/11 07:21:16;;;;;;;1.60;1.40;;;6.40;98.20;;;;;;5093299;28;20482;-71
2023/02/11 07:23:43;;;;;;;1.57;1.30;;;6.40;98.20;;;;;;5106343;28;20488;-72
2023/02/11 07:26:13;;;;;;;1.60;1.47;;;6.40;98.20;;;;;;5092524;28;20476;-71
2023/02/11 07:28:41;;;;;;;1.70;1.30;;;6.40;98.20;;;;;;5102257;28;20456;-71
2023/02/11 07:31:08;;;;;;;1.60;1.30;;;6.40;98.20;;;;;;5095781;28;20483;-71
2023/02/11 07:33:36;;;;;;;1.53;1.30;;;6.40;98.20;;;;;;5097822;28;20528;-71
2023/02/11 07:36:07;;;;;;;1.60;1.30;;;6.40;98.20;;;;;;5085928;28;20562;-71
2023/02/11 07:38:35;;;;;;;1.53;1.20;;;6.40;98.20;;;;;;5087206;28;20455;-72
2023/02/11 07:41:03;;;;;;;1.60;1.20;;;6.50;98.20;;;;;;5091539;28;20460;-71
2023/02/11 07:43:31;;;;;;;1.60;1.33;;;6.50;98.20;;;;;;5081312;27;20933;-71
2023/02/11 07:45:58;;;;;;;1.60;1.40;;;6.50;98.20;;;;;;5081710;27;20458;-71
2023/02/11 07:48:25;;;;;;;1.53;1.20;;;6.50;98.20;;;;;;5097820;28;20460;-71
2023/02/11 07:50:53;;;;;;;1.60;1.43;;;6.50;98.20;;;;;;5094812;28;20836;-71
2023/02/11 07:53:21;;;;;;;1.50;1.20;;;6.50;98.20;;;;;;5082193;28;21168;-71
2023/02/11 07:55:48;;;;;;;1.53;1.30;;;6.50;98.20;;;;;;5087626;28;20575;-71
2023/02/11 07:58:15;;;;;;;1.60;1.30;;;6.50;98.20;;;;;;5088785;28;20614;-71
2023/02/11 08:00:42;;;;;;;1.60;1.30;;;6.50;98.20;;;;;;5106417;28;20462;-71
2023/02/11 08:03:09;;;;;;;1.60;1.20;;;6.60;98.20;;;;;;5093635;28;20522;-71
2023/02/11 08:05:38;;;;;;;1.57;1.27;;;6.60;98.20;;;;;;5106983;28;20458;-71
2023/02/11 08:08:05;;;;;;;1.60;1.50;;;6.60;98.20;;;;;;5074508;28;20897;-71
2023/02/11 08:10:34;;;;;;;1.50;1.20;;;6.60;98.20;;;;;;5107174;28;20466;-73
2023/02/11 08:13:01;;;;;;;1.53;1.20;;;6.60;98.20;;;;;;5063054;28;20485;-73
2023/02/11 08:15:28;;;;;;;1.57;1.30;;;6.60;98.20;;;;;;5101106;28;21026;-72
2023/02/11 08:17:56;;;;;;;1.57;1.30;;;6.60;98.20;;;;;;5070649;28;21036;-72
2023/02/11 08:20:23;;;;;;;2.67;2.47;;;6.60;98.20;;;;;;5098596;28;20482;-72
2023/02/11 08:22:50;;;;;;;1.53;1.20;;;6.60;98.20;;;;;;5083866;28;20951;-71
2023/02/11 08:25:17;;;;;;;1.60;1.40;;;6.60;98.20;;;;;;5103925;28;20467;-70
2023/02/11 08:27:46;;;;;;;1.53;1.30;;;6.70;98.20;;;;;;5066749;28;20480;-71
2023/02/11 08:30:14;;;;;;;1.57;1.20;;;6.70;98.20;;;;;;5102054;28;20937;-71
2023/02/11 08:32:41;;;;;;;1.57;1.20;;;6.70;98.20;;;;;;5067493;28;21012;-71
2023/02/11 08:35:11;;;;;;;1.57;1.27;;;6.70;98.20;;;;;;5099564;28;20488;-72
2023/02/11 08:37:39;;;;;;;1.60;1.30;;;6.80;98.20;;;;;;5085489;28;20476;-71
2023/02/11 08:40:07;;;;;;;1.60;1.30;;;6.80;98.20;;;;;;5104391;28;20455;-71
2023/02/11 08:42:34;;;;;;;1.53;1.17;;;6.80;98.20;;;;;;5071459;28;20491;-72
2023/02/11 08:45:03;;;;;;;1.60;1.40;;;6.80;98.20;;;;;;5098625;28;20956;-72
2023/02/11 08:47:31;;;;;;;1.57;1.20;;;6.80;98.20;;;;;;5084494;28;20479;-71
2023/02/11 08:49:58;;;;;;;1.77;1.63;;;6.90;98.20;;;;;;5101095;28;20754;-72
2023/02/11 08:52:25;;;;;;;1.53;1.20;;;6.90;98.20;;;;;;5082802;28;20495;-72
2023/02/11 08:54:52;;;;;;;1.57;1.20;;;6.90;98.20;;;;;;5098036;28;20467;-72
2023/02/11 08:57:20;;;;;;;1.57;1.20;;;6.90;98.20;;;;;;5073998;28;20473;-72
2023/02/11 08:59:47;;;;;;;1.60;1.20;;;7.00;98.20;;;;;;5094520;28;20491;-72
2023/02/11 09:02:16;;;;;;;1.53;1.20;;;7.00;98.20;;;;;;5086424;28;20475;-72
2023/02/11 09:04:43;;;;;;;1.60;1.20;;;7.00;98.20;;;;;;5101551;28;20467;-72
2023/02/11 09:07:11;;;;;;;1.60;1.37;;;7.00;98.20;;;;;;5072175;28;20484;-72
2023/02/11 09:09:38;;;;;;;1.60;1.20;;;7.00;98.20;;;;;;5092211;28;20914;-72
2023/02/11 09:12:06;;;;;;;1.60;1.20;;;7.00;98.20;;;;;;5085087;28;20554;-72
2023/02/11 09:14:33;;;;;;;1.60;1.37;;;7.00;98.20;;;;;;5100944;28;20483;-72
2023/02/11 09:17:00;;;;;;;1.60;1.20;;;7.00;98.20;;;;;;5079586;28;20488;-72
2023/02/11 09:19:29;;;;;;;1.57;1.27;;;7.10;98.20;;;;;;5094535;28;20566;-72
2023/02/11 09:21:56;;;;;;;1.60;1.30;;;7.10;98.20;;;;;;5088112;28;20518;-71
2023/02/11 09:24:23;;;;;;;1.53;1.20;;;7.10;98.20;;;;;;5092390;28;20489;-72
2023/02/11 09:26:50;;;;;;;3.83;3.23;;;7.10;98.20;;;;;;5084840;28;20612;-72
2023/02/11 09:29:18;;;;;;;1.60;1.30;;;7.10;98.20;;;;;;5098655;28;20460;-72
2023/02/11 09:31:45;;;;;;;1.60;1.20;;;7.20;98.20;;;;;;5079779;28;20472;-72
2023/02/11 09:34:14;;;;;;;1.57;1.10;;;7.20;98.20;;;;;;5088507;28;20479;-72
2023/02/11 09:36:43;;;;;;;1.60;1.30;;;7.20;98.20;;;;;;5081360;28;20472;-73
2023/02/11 09:39:13;;;;;;;1.60;1.30;;;7.20;98.20;;;;;;5092897;28;20495;-72
2023/02/11 09:42:10;;;;;;;1.60;1.50;;;7.30;98.20;;;;;;5087955;28;20480;-72
2023/02/11 09:44:38;;;;;;;1.50;1.10;;;7.30;98.20;;;;;;5066558;28;20475;-72
2023/02/11 09:47:16;;;;;;;1.60;1.30;;;7.30;98.20;;;;;;5069977;28;20476;-71
2023/02/11 09:49:48;;;;;;;1.60;1.10;;;7.30;98.20;;;;;;5095811;28;20473;-72
2023/02/11 09:52:25;;;;;;;1.57;1.27;;;7.30;98.20;;;;;;5084803;28;20475;-72
2023/02/11 09:54:56;;;;;;;1.60;1.30;;;7.30;98.20;;;;;;5100659;28;20463;-71
2023/02/11 09:57:26;;;;;;;1.50;1.20;;;7.40;98.20;;;;;;5066544;28;20485;-72
2023/02/11 09:59:54;;;;;;;1.60;1.20;;;7.40;98.20;;;;;;5094724;28;20464;-72
2023/02/11 10:02:29;;;;;;;1.50;1.10;;;7.40;98.20;;;;;;5073105;22;20557;-71
2023/02/11 10:05:18;;;;;;;1.60;1.30;;;7.40;98.20;;;;;;5108285;27;20460;-71
2023/02/11 10:07:56;;;;;;;1.60;1.30;;;7.40;98.20;;;;;;5114118;27;20563;-72
2023/02/11 10:10:44;;;;;;;1.67;1.57;;;7.50;98.20;;;;;;5111965;27;20540;-71
2023/02/11 10:13:38;;;;;;;1.60;1.23;;;7.50;98.20;;;;;;5099430;27;20493;-71
2023/02/11 10:16:17;;;;;;;1.57;1.20;;;7.50;98.20;;;;;;5085976;27;20599;-70
2023/02/11 10:19:19;;;;;;;1.60;1.20;;;7.50;98.20;;;;;;5111844;27;20455;-71
2023/02/11 10:21:58;;;;;;;1.60;1.30;;;7.50;98.20;;;;;;5108990;27;20491;-71
2023/02/11 10:24:28;;;;;;;1.53;1.20;;;7.50;98.20;;;;;;5121363;27;20919;-71
2023/02/11 10:26:55;;;;;;;1.60;1.30;;;7.60;98.20;;;;;;5109207;27;20574;-71
2023/02/11 10:29:35;;;;;;;1.57;1.20;;;7.60;98.20;;;;;;5120580;27;20467;-71
2023/02/11 10:32:08;;;;;;;1.60;1.23;;;7.60;98.20;;;;;;5100780;27;20562;-71
2023/02/11 10:34:41;;;;;;;1.60;1.40;;;7.60;98.20;;;;;;5111545;27;20478;-71
2023/02/11 10:37:11;;;;;;;1.60;1.20;;;7.60;98.20;;;;;;5102542;27;20482;-71
2023/02/11 10:39:41;;;;;;;1.57;1.20;;;7.70;98.20;;;;;;5112781;27;20464;-71
2023/02/11 10:42:11;;;;;;;1.60;1.20;;;7.70;98.20;;;;;;5100161;27;20511;-71
2023/02/11 10:44:41;;;;;;;1.60;1.20;;;7.70;98.20;;;;;;5110157;27;20488;-72
2023/02/11 10:47:14;;;;;;;1.57;1.27;;;7.70;98.20;;;;;;5102207;27;20840;-71
2023/02/11 10:49:43;;;;;;;1.53;1.20;;;7.70;98.20;;;;;;5115031;27;20841;-71
2023/02/11 10:52:21;;;;;;;1.60;1.20;;;7.70;98.20;;;;;;5112701;27;20473;-72
2023/02/11 10:55:06;;;;;;;2.13;1.93;;;7.70;98.20;;;;;;5113775;27;20955;-71
2023/02/11 10:57:38;;;;;;;1.53;1.20;;;7.80;98.20;;;;;;5114898;27;20486;-71
2023/02/11 11:00:21;;;;;;;1.60;1.20;;;7.80;98.20;;;;;;5112184;27;20499;-71
2023/02/11 11:02:55;;;;;;;1.60;1.20;;;7.80;98.20;;;;;;5101812;27;20575;-71
2023/02/11 11:05:29;;;;;;;1.60;1.30;;;7.80;98.20;;;;;;5112260;27;20530;-71
2023/02/11 11:07:58;;;;;;;1.60;1.20;;;7.80;98.20;;;;;;5102003;27;20492;-72
2023/02/11 11:10:48;;;;;;;2.27;1.77;;;7.80;98.20;;;;;;5115690;27;20459;-71
2023/02/11 11:13:30;;;;;;;1.60;1.33;;;7.70;98.20;;;;;;5076493;27;20485;-70
2023/02/11 11:16:15;;;;;;;1.60;1.20;;;7.70;98.20;;;;;;5095554;27;20813;-72
2023/02/11 11:18:44;;;;;;;1.57;1.10;;;7.80;98.20;;;;;;5121005;27;20955;-72
2023/02/11 11:21:15;;;;;;;1.60;1.20;;;7.80;98.20;;;;;;5103177;27;21060;-71
2023/02/11 11:23:49;;;;;;;1.60;1.30;;;7.80;98.20;;;;;;5110202;27;21553;-71
2023/02/11 11:26:18;;;;;;;1.60;1.30;;;7.80;98.20;;;;;;5099583;27;20560;-72
2023/02/11 11:29:00;;;;;;;1.60;1.20;;;7.90;98.20;;;;;;5114082;27;20554;-74
2023/02/11 11:31:32;;;;;;;1.60;1.20;;;7.90;98.20;;;;;;5106617;27;20542;-76
2023/02/11 11:34:21;;;;;;;1.60;1.30;;;7.90;98.20;;;;;;5113965;27;21246;-74
2023/02/11 11:36:52;;;;;;;1.60;1.20;;;7.90;98.20;;;;;;5104255;27;20998;-71
2023/02/11 11:39:23;;;;;;;1.60;1.20;;;7.90;98.20;;;;;;5121527;27;20462;-72
2023/02/11 11:41:55;;;;;;;1.60;1.30;;;7.90;98.20;;;;;;5105621;27;20490;-72
2023/02/11 11:44:29;;;;;;;1.70;1.50;;;7.90;98.20;;;;;;5116556;27;20490;-72
2023/02/11 11:47:19;;;;;;;2.17;1.73;;;7.90;98.20;;;;;;5104449;27;20489;-72
2023/02/11 11:49:54;;;;;;;1.60;1.20;;;7.90;98.20;;;;;;5115492;27;20463;-72
2023/02/11 11:52:36;;;;;;;1.60;1.20;;;8.00;98.20;;;;;;5106534;27;20478;-72
2023/02/11 11:55:11;;;;;;;1.60;1.20;;;8.00;98.20;;;;;;5113355;27;20465;-71
2023/02/11 11:57:40;;;;;;;1.60;1.20;;;8.00;98.20;;;;;;5096274;27;20524;-72
2023/02/11 12:00:16;;;;;;;1.53;1.10;;;8.00;98.20;;;;;;5110303;27;20914;-72
2023/02/11 12:03:06;;;;;;;1.60;1.20;;;8.00;98.20;;;;;;5117696;27;20490;-72
2023/02/11 12:05:42;;;;;;;1.60;1.20;;;8.00;98.20;;;;;;5118966;27;20487;-72
2023/02/11 12:08:20;;;;;;;1.60;1.20;;;8.00;98.20;;;;;;5106444;27;20478;-72
2023/02/11 12:11:02;;;;;;;1.57;1.10;;;8.00;98.20;;;;;;5106650;27;20455;-71
2023/02/11 12:13:47;;;;;;;1.60;1.20;;;8.00;98.20;;;;;;5108769;27;20489;-73
2023/02/11 12:16:28;;;;;;;2.53;2.33;;;8.00;98.20;;;;;;5107865;27;20478;-72
2023/02/11 12:19:38;;;;;;;1.60;1.20;;;8.10;98.20;;;;;;5132241;27;20545;-74
2023/02/11 12:22:11;;;;;;;1.60;1.20;;;8.10;98.20;;;;;;5104797;27;20894;-72
2023/02/11 12:25:04;;;;;;;1.60;1.30;;;8.10;98.20;;;;;;5113207;27;20495;-72
2023/02/11 12:27:47;;;;;;;1.60;1.20;;;8.20;98.20;;;;;;5102188;27;20574;-74
2023/02/11 12:30:29;;;;;;;1.57;1.20;;;8.20;98.20;;;;;;5117408;27;20454;-72
2023/02/11 12:33:08;;;;;;;1.53;1.10;;;8.20;98.20;;;;;;5101707;27;20497;-72
2023/02/11 12:35:48;;;;;;;1.60;1.20;;;8.20;98.20;;;;;;5113264;28;20492;-73
2023/02/11 12:38:38;;;;;;;1.60;1.20;;;8.20;98.20;;;;;;5087017;28;20517;-73
2023/02/11 12:43:15;;;;;;;1.57;1.17;;;8.20;98.20;;;;;;5106980;27;20454;-72
2023/02/11 12:44:11;;;;;;;1.57;1.20;;;8.20;98.20;;;;;;5126395;27;20478;-72
2023/02/11 12:46:46;;;;;;;1.57;1.20;;;8.20;98.20;;;;;;5104023;27;20483;-73
2023/02/11 12:49:31;;;;;;;1.60;1.37;;;8.20;98.20;;;;;;5114327;27;20998;-72
2023/02/11 12:52:19;;;;;;;1.67;1.43;;;8.20;98.20;;;;;;5117825;27;20564;-73
2023/02/11 12:54:55;;;;;;;2.00;1.90;;;8.20;98.20;;;;;;5123417;27;20966;-72
2023/02/11 12:57:26;;;;;;;1.60;1.30;;;8.20;98.20;;;;;;5119977;27;20575;-72
2023/02/11 13:00:01;;;;;;;1.60;1.20;;;8.20;98.20;;;;;;5116041;27;20983;-72
2023/02/11 13:02:39;;;;;;;1.57;1.20;;;8.20;98.20;;;;;;5099786;27;20489;-72
2023/02/11 13:05:22;;;;;;;1.60;1.20;;;8.20;98.20;;;;;;5111824;27;20470;-72
2023/02/11 13:07:54;;;;;;;1.60;1.20;;;8.20;98.20;;;;;;5122019;27;20530;-73
2023/02/11 13:10:28;;;;;;;1.53;1.10;;;8.20;98.20;;;;;;5116489;27;20485;-72
2023/02/11 13:15:46;;;;;;;1.60;1.27;;;8.20;98.20;;;;;;5112547;27;21169;-73
2023/02/11 13:18:28;;;;;;;2.73;2.43;;;8.20;98.20;;;;;;5084362;27;20475;-72
2023/02/11 13:21:01;;;;;;;1.90;1.40;;;8.20;98.20;;;;;;5094917;27;20451;-73
2023/02/11 13:23:38;;;;;;;1.53;1.10;;;8.20;98.20;;;;;;5128248;27;21310;-73
2023/02/11 13:26:18;;;;;;;2.17;1.97;;;8.20;98.20;;;;;;5102088;27;20897;-73